Decoded Metar for KMLF (MILFORD in UT, USA) (IATA:MLF) | Meteo·Mobile Aviation Weather
aviador You're here:

KMLF Decoded Metar

MILFORD in UT, USA
Report Time2018-10-17 02:52:00
UTC Time2018-10-17 03:24:44
Flight Rules vfr VFR
Wind350° at 14 kt
W.Decomp.*RWY 34: 13.9 kt HW 1.2 kt LCW
W.Rank350° ranks 10
Current wind is above 350° avg. (9.5)
Visibility9999 m
Phenomena:N/A
Clouds:N/A
Expected CloudBase > 3,600 ft AGL from Temp-Dew spread
CeilingNone
Temp07°C (ISA +2)
Dew Point-2°C (53% RH)
AAT-0.3°C
QNH1023 hPa
Density Alt5,016 ft
Elevation5,033 ft
Report Wrong Elevation
Raw Report
KMLF 170252Z AUTO 35014KT 10SM CLR 07/M02 A3022 RMK AO2 SLP234
T00721022 53002=

Extra information for KMLF:More info

Metar Taf Metar & Taf Last 4 Metars F.Rules Stats Wind Profile Meteogram Temp Stats Airport Information Weather charts Add Link Nearby VenuesMetar ALERT Operation Metar Decoded Social comments

AIRNAV info for KMLF